sensor_id;sensor_type;location;lat;lon;timestamp;temperature;humidity
22813;DHT22;11573;51.334;3.244;2023-08-24T00:01:17;18.40;99.90
22813;DHT22;11573;51.334;3.244;2023-08-24T00:03:44;18.50;99.90
22813;DHT22;11573;51.334;3.244;2023-08-24T00:06:13;18.50;99.90
22813;DHT22;11573;51.334;3.244;2023-08-24T00:08:40;18.50;99.90
22813;DHT22;11573;51.334;3.244;2023-08-24T00:11:06;18.60;99.90
22813;DHT22;11573;51.334;3.244;2023-08-24T00:13:34;18.60;99.90
22813;DHT22;11573;51.334;3.244;2023-08-24T00:16:01;18.60;99.90
22813;DHT22;11573;51.334;3.244;2023-08-24T00:18:28;18.60;99.90
22813;DHT22;11573;51.334;3.244;2023-08-24T00:20:55;18.60;99.90
22813;DHT22;11573;51.334;3.244;2023-08-24T00:23:22;18.60;99.90
22813;DHT22;11573;51.334;3.244;2023-08-24T00:25:50;18.50;99.90
22813;DHT22;11573;51.334;3.244;2023-08-24T00:28:16;18.50;99.90
22813;DHT22;11573;51.334;3.244;2023-08-24T00:30:43;18.60;99.90
22813;DHT22;11573;51.334;3.244;2023-08-24T00:33:10;18.60;99.90
22813;DHT22;11573;51.334;3.244;2023-08-24T00:35:38;18.60;99.90
22813;DHT22;11573;51.334;3.244;2023-08-24T00:38:04;18.70;99.90
22813;DHT22;11573;51.334;3.244;2023-08-24T00:40:33;18.70;99.90
22813;DHT22;11573;51.334;3.244;2023-08-24T00:43:01;18.80;99.90
22813;DHT22;11573;51.334;3.244;2023-08-24T00:45:28;18.90;99.90
22813;DHT22;11573;51.334;3.244;2023-08-24T00:47:57;18.90;99.90
22813;DHT22;11573;51.334;3.244;2023-08-24T00:50:24;18.80;99.90
22813;DHT22;11573;51.334;3.244;2023-08-24T00:52:52;18.80;99.90
22813;DHT22;11573;51.334;3.244;2023-08-24T00:55:20;18.70;99.90
22813;DHT22;11573;51.334;3.244;2023-08-24T00:57:47;18.70;99.90
22813;DHT22;11573;51.334;3.244;2023-08-24T01:00:16;18.60;99.90
22813;DHT22;11573;51.334;3.244;2023-08-24T01:02:43;18.70;99.90
22813;DHT22;11573;51.334;3.244;2023-08-24T01:05:10;18.70;99.90
22813;DHT22;11573;51.334;3.244;2023-08-24T01:07:39;18.60;99.90
22813;DHT22;11573;51.334;3.244;2023-08-24T01:10:09;18.50;99.90
22813;DHT22;11573;51.334;3.244;2023-08-24T01:15:26;18.40;99.90
22813;DHT22;11573;51.334;3.244;2023-08-24T01:18:03;18.40;99.90
22813;DHT22;11573;51.334;3.244;2023-08-24T01:20:32;18.40;99.90
22813;DHT22;11573;51.334;3.244;2023-08-24T01:23:32;18.40;99.90
22813;DHT22;11573;51.334;3.244;2023-08-24T01:26:16;18.40;99.90
22813;DHT22;11573;51.334;3.244;2023-08-24T01:28:45;18.40;99.90
22813;DHT22;11573;51.334;3.244;2023-08-24T01:31:16;18.40;99.90
22813;DHT22;11573;51.334;3.244;2023-08-24T01:33:44;18.40;99.90
22813;DHT22;11573;51.334;3.244;2023-08-24T01:36:13;18.40;99.90
22813;DHT22;11573;51.334;3.244;2023-08-24T01:38:41;18.40;99.90
22813;DHT22;11573;51.334;3.244;2023-08-24T01:41:38;18.40;99.90
22813;DHT22;11573;51.334;3.244;2023-08-24T01:44:12;18.40;99.90
22813;DHT22;11573;51.334;3.244;2023-08-24T01:46:42;18.30;99.90
22813;DHT22;11573;51.334;3.244;2023-08-24T01:49:13;18.30;99.90
22813;DHT22;11573;51.334;3.244;2023-08-24T01:51:42;18.30;99.90
22813;DHT22;11573;51.334;3.244;2023-08-24T01:54:09;18.30;99.90
22813;DHT22;11573;51.334;3.244;2023-08-24T01:56:36;18.30;99.90
22813;DHT22;11573;51.334;3.244;2023-08-24T01:59:03;18.30;99.90
22813;DHT22;11573;51.334;3.244;2023-08-24T02:01:30;18.30;99.90
22813;DHT22;11573;51.334;3.244;2023-08-24T02:03:57;18.40;99.90
22813;DHT22;11573;51.334;3.244;2023-08-24T02:06:26;18.40;99.90
22813;DHT22;11573;51.334;3.244;2023-08-24T02:08:54;18.40;99.90
22813;DHT22;11573;51.334;3.244;2023-08-24T02:11:21;18.30;99.90
22813;DHT22;11573;51.334;3.244;2023-08-24T02:13:48;18.20;99.90
22813;DHT22;11573;51.334;3.244;2023-08-24T02:16:15;18.20;99.90
22813;DHT22;11573;51.334;3.244;2023-08-24T02:18:42;18.20;99.90
22813;DHT22;11573;51.334;3.244;2023-08-24T02:21:09;18.10;99.90
22813;DHT22;11573;51.334;3.244;2023-08-24T02:23:39;18.10;99.90
22813;DHT22;11573;51.334;3.244;2023-08-24T02:26:06;18.10;99.90
22813;DHT22;11573;51.334;3.244;2023-08-24T02:28:36;18.10;99.90
22813;DHT22;11573;51.334;3.244;2023-08-24T02:31:04;18.00;99.90
22813;DHT22;11573;51.334;3.244;2023-08-24T02:33:31;18.00;99.90
22813;DHT22;11573;51.334;3.244;2023-08-24T02:35:58;17.90;99.90
22813;DHT22;11573;51.334;3.244;2023-08-24T02:38:25;17.90;99.90
22813;DHT22;11573;51.334;3.244;2023-08-24T02:41:06;17.80;99.90
22813;DHT22;11573;51.334;3.244;2023-08-24T02:43:34;17.80;99.90
22813;DHT22;11573;51.334;3.244;2023-08-24T02:46:07;17.80;99.90
22813;DHT22;11573;51.334;3.244;2023-08-24T02:48:35;17.80;99.90
22813;DHT22;11573;51.334;3.244;2023-08-24T02:51:04;17.70;99.90
22813;DHT22;11573;51.334;3.244;2023-08-24T02:53:31;17.60;99.90
22813;DHT22;11573;51.334;3.244;2023-08-24T02:56:00;17.50;99.90
22813;DHT22;11573;51.334;3.244;2023-08-24T02:58:27;17.50;99.90
22813;DHT22;11573;51.334;3.244;2023-08-24T03:00:54;17.60;99.90
22813;DHT22;11573;51.334;3.244;2023-08-24T03:03:22;17.60;99.90
22813;DHT22;11573;51.334;3.244;2023-08-24T03:05:59;17.60;99.90
22813;DHT22;11573;51.334;3.244;2023-08-24T03:08:29;17.60;99.90
22813;DHT22;11573;51.334;3.244;2023-08-24T03:10:58;17.50;99.90
22813;DHT22;11573;51.334;3.244;2023-08-24T03:13:25;17.60;99.90
22813;DHT22;11573;51.334;3.244;2023-08-24T03:15:54;17.60;99.90
22813;DHT22;11573;51.334;3.244;2023-08-24T03:18:23;17.50;99.90
22813;DHT22;11573;51.334;3.244;2023-08-24T03:20:51;17.50;99.90
22813;DHT22;11573;51.334;3.244;2023-08-24T03:23:18;17.40;99.90
22813;DHT22;11573;51.334;3.244;2023-08-24T03:25:45;17.40;99.90
22813;DHT22;11573;51.334;3.244;2023-08-24T03:28:13;17.40;99.90
22813;DHT22;11573;51.334;3.244;2023-08-24T03:30:49;17.40;99.90
22813;DHT22;11573;51.334;3.244;2023-08-24T03:33:17;17.40;99.90
22813;DHT22;11573;51.334;3.244;2023-08-24T03:35:44;17.40;99.90
22813;DHT22;11573;51.334;3.244;2023-08-24T03:38:11;17.40;99.90
22813;DHT22;11573;51.334;3.244;2023-08-24T03:40:38;17.40;99.90
22813;DHT22;11573;51.334;3.244;2023-08-24T03:43:05;17.50;99.90
22813;DHT22;11573;51.334;3.244;2023-08-24T03:45:32;17.60;99.90
22813;DHT22;11573;51.334;3.244;2023-08-24T03:47:59;17.70;99.90
22813;DHT22;11573;51.334;3.244;2023-08-24T03:50:26;17.60;99.90
22813;DHT22;11573;51.334;3.244;2023-08-24T03:52:54;17.70;99.90
22813;DHT22;11573;51.334;3.244;2023-08-24T03:55:21;17.70;99.90
22813;DHT22;11573;51.334;3.244;2023-08-24T03:57:49;17.60;99.90
22813;DHT22;11573;51.334;3.244;2023-08-24T04:00:17;17.60;99.90
22813;DHT22;11573;51.334;3.244;2023-08-24T04:02:44;17.70;99.90
22813;DHT22;11573;51.334;3.244;2023-08-24T04:05:20;17.80;99.90
22813;DHT22;11573;51.334;3.244;2023-08-24T04:07:47;17.80;99.90
22813;DHT22;11573;51.334;3.244;2023-08-24T04:10:15;17.70;99.90
22813;DHT22;11573;51.334;3.244;2023-08-24T04:12:42;17.70;99.90
22813;DHT22;11573;51.334;3.244;2023-08-24T04:15:09;17.70;99.90
22813;DHT22;11573;51.334;3.244;2023-08-24T04:17:38;17.70;99.90
22813;DHT22;11573;51.334;3.244;2023-08-24T04:20:08;17.60;99.90
22813;DHT22;11573;51.334;3.244;2023-08-24T04:22:35;17.60;99.90
22813;DHT22;11573;51.334;3.244;2023-08-24T04:25:03;17.50;99.90
22813;DHT22;11573;51.334;3.244;2023-08-24T04:27:31;17.40;99.90
22813;DHT22;11573;51.334;3.244;2023-08-24T04:29:58;17.40;99.90
22813;DHT22;11573;51.334;3.244;2023-08-24T04:32:25;17.40;99.90
22813;DHT22;11573;51.334;3.244;2023-08-24T04:34:52;17.30;99.90
22813;DHT22;11573;51.334;3.244;2023-08-24T04:37:19;17.30;99.90
22813;DHT22;11573;51.334;3.244;2023-08-24T04:39:46;17.20;99.90
22813;DHT22;11573;51.334;3.244;2023-08-24T04:42:13;17.20;99.90
22813;DHT22;11573;51.334;3.244;2023-08-24T04:44:40;17.10;99.90
22813;DHT22;11573;51.334;3.244;2023-08-24T04:47:08;17.10;99.90
22813;DHT22;11573;51.334;3.244;2023-08-24T04:49:36;17.10;99.90
22813;DHT22;11573;51.334;3.244;2023-08-24T04:52:03;17.20;99.90
22813;DHT22;11573;51.334;3.244;2023-08-24T04:54:30;17.20;99.90
22813;DHT22;11573;51.334;3.244;2023-08-24T04:56:57;17.30;99.90
22813;DHT22;11573;51.334;3.244;2023-08-24T04:59:24;17.30;99.90
22813;DHT22;11573;51.334;3.244;2023-08-24T05:01:51;17.30;99.90
22813;DHT22;11573;51.334;3.244;2023-08-24T05:04:18;17.30;99.90
22813;DHT22;11573;51.334;3.244;2023-08-24T05:06:45;17.40;99.90
22813;DHT22;11573;51.334;3.244;2023-08-24T05:09:11;17.40;99.90
22813;DHT22;11573;51.334;3.244;2023-08-24T05:11:38;17.50;99.90
22813;DHT22;11573;51.334;3.244;2023-08-24T05:14:06;17.60;99.90
22813;DHT22;11573;51.334;3.244;2023-08-24T05:16:32;17.70;99.90
22813;DHT22;11573;51.334;3.244;2023-08-24T05:18:59;17.70;99.90
22813;DHT22;11573;51.334;3.244;2023-08-24T05:21:26;17.80;99.90
22813;DHT22;11573;51.334;3.244;2023-08-24T05:23:53;18.10;99.90
22813;DHT22;11573;51.334;3.244;2023-08-24T05:26:20;18.40;99.90
22813;DHT22;11573;51.334;3.244;2023-08-24T05:28:49;18.60;99.90
22813;DHT22;11573;51.334;3.244;2023-08-24T05:31:17;18.80;99.90
22813;DHT22;11573;51.334;3.244;2023-08-24T05:33:47;18.70;99.90
22813;DHT22;11573;51.334;3.244;2023-08-24T05:36:14;18.80;99.90
22813;DHT22;11573;51.334;3.244;2023-08-24T05:38:41;18.80;99.90
22813;DHT22;11573;51.334;3.244;2023-08-24T05:41:31;18.90;99.90
22813;DHT22;11573;51.334;3.244;2023-08-24T05:43:58;18.80;99.90
22813;DHT22;11573;51.334;3.244;2023-08-24T05:46:25;18.90;99.90
22813;DHT22;11573;51.334;3.244;2023-08-24T05:48:53;18.90;99.90
22813;DHT22;11573;51.334;3.244;2023-08-24T05:51:22;18.90;99.90
22813;DHT22;11573;51.334;3.244;2023-08-24T05:53:49;19.00;99.90
22813;DHT22;11573;51.334;3.244;2023-08-24T05:56:16;19.20;99.90
22813;DHT22;11573;51.334;3.244;2023-08-24T05:58:43;19.20;99.90
22813;DHT22;11573;51.334;3.244;2023-08-24T06:01:10;19.30;99.90
22813;DHT22;11573;51.334;3.244;2023-08-24T06:03:37;19.50;99.90
22813;DHT22;11573;51.334;3.244;2023-08-24T06:06:04;19.60;99.90
22813;DHT22;11573;51.334;3.244;2023-08-24T06:08:32;19.70;99.90
22813;DHT22;11573;51.334;3.244;2023-08-24T06:10:59;19.80;99.90
22813;DHT22;11573;51.334;3.244;2023-08-24T06:13:26;19.90;99.90
22813;DHT22;11573;51.334;3.244;2023-08-24T06:15:53;20.00;99.90
22813;DHT22;11573;51.334;3.244;2023-08-24T06:18:21;20.20;99.90
22813;DHT22;11573;51.334;3.244;2023-08-24T06:20:48;20.30;99.90
22813;DHT22;11573;51.334;3.244;2023-08-24T06:23:18;20.20;99.90
22813;DHT22;11573;51.334;3.244;2023-08-24T06:25:46;20.40;99.90
22813;DHT22;11573;51.334;3.244;2023-08-24T06:28:13;20.40;99.90
22813;DHT22;11573;51.334;3.244;2023-08-24T06:30:41;20.50;99.90
22813;DHT22;11573;51.334;3.244;2023-08-24T06:33:10;20.70;99.90
22813;DHT22;11573;51.334;3.244;2023-08-24T06:35:40;20.70;99.90
22813;DHT22;11573;51.334;3.244;2023-08-24T06:38:07;20.90;99.90
22813;DHT22;11573;51.334;3.244;2023-08-24T06:40:34;20.80;99.90
22813;DHT22;11573;51.334;3.244;2023-08-24T06:43:01;20.90;99.90
22813;DHT22;11573;51.334;3.244;2023-08-24T06:45:28;21.10;99.90
22813;DHT22;11573;51.334;3.244;2023-08-24T06:47:55;21.30;99.90
22813;DHT22;11573;51.334;3.244;2023-08-24T06:50:22;21.50;99.90
22813;DHT22;11573;51.334;3.244;2023-08-24T06:52:49;21.50;99.90
22813;DHT22;11573;51.334;3.244;2023-08-24T06:55:16;21.60;99.90
22813;DHT22;11573;51.334;3.244;2023-08-24T06:57:48;21.70;99.90
22813;DHT22;11573;51.334;3.244;2023-08-24T07:00:16;21.80;99.90
22813;DHT22;11573;51.334;3.244;2023-08-24T07:02:44;21.70;99.90
22813;DHT22;11573;51.334;3.244;2023-08-24T07:05:11;21.60;99.90
22813;DHT22;11573;51.334;3.244;2023-08-24T07:07:39;21.70;99.90
22813;DHT22;11573;51.334;3.244;2023-08-24T07:10:07;21.70;99.90
22813;DHT22;11573;51.334;3.244;2023-08-24T07:12:34;21.70;99.90
22813;DHT22;11573;51.334;3.244;2023-08-24T07:15:02;21.80;99.90
22813;DHT22;11573;51.334;3.244;2023-08-24T07:17:29;21.80;99.90
22813;DHT22;11573;51.334;3.244;2023-08-24T07:19:56;21.70;99.90
22813;DHT22;11573;51.334;3.244;2023-08-24T07:22:23;21.40;99.90
22813;DHT22;11573;51.334;3.244;2023-08-24T07:24:50;21.40;99.90
22813;DHT22;11573;51.334;3.244;2023-08-24T07:27:19;21.30;99.90
22813;DHT22;11573;51.334;3.244;2023-08-24T07:29:46;21.10;99.90
22813;DHT22;11573;51.334;3.244;2023-08-24T07:32:13;21.20;99.90
22813;DHT22;11573;51.334;3.244;2023-08-24T07:34:40;21.10;99.90
22813;DHT22;11573;51.334;3.244;2023-08-24T07:37:07;21.10;99.90
22813;DHT22;11573;51.334;3.244;2023-08-24T07:39:34;21.00;99.90
22813;DHT22;11573;51.334;3.244;2023-08-24T07:42:02;21.00;99.90
22813;DHT22;11573;51.334;3.244;2023-08-24T07:44:29;20.90;99.90
22813;DHT22;11573;51.334;3.244;2023-08-24T07:46:57;20.90;99.90
22813;DHT22;11573;51.334;3.244;2023-08-24T07:49:24;20.90;99.90
22813;DHT22;11573;51.334;3.244;2023-08-24T07:51:51;20.90;99.90
22813;DHT22;11573;51.334;3.244;2023-08-24T07:54:18;20.80;99.90
22813;DHT22;11573;51.334;3.244;2023-08-24T07:56:45;20.80;99.90
22813;DHT22;11573;51.334;3.244;2023-08-24T07:59:12;20.70;99.90
22813;DHT22;11573;51.334;3.244;2023-08-24T08:01:39;20.80;99.90
22813;DHT22;11573;51.334;3.244;2023-08-24T08:04:06;20.80;99.90
22813;DHT22;11573;51.334;3.244;2023-08-24T08:06:33;20.90;99.90
22813;DHT22;11573;51.334;3.244;2023-08-24T08:09:00;20.90;99.90
22813;DHT22;11573;51.334;3.244;2023-08-24T08:11:28;20.90;99.90
22813;DHT22;11573;51.334;3.244;2023-08-24T08:13:55;20.90;99.90
22813;DHT22;11573;51.334;3.244;2023-08-24T08:16:22;20.90;99.90
22813;DHT22;11573;51.334;3.244;2023-08-24T08:18:49;20.90;99.90
22813;DHT22;11573;51.334;3.244;2023-08-24T08:21:17;21.00;99.90
22813;DHT22;11573;51.334;3.244;2023-08-24T08:23:49;20.90;99.90
22813;DHT22;11573;51.334;3.244;2023-08-24T08:26:16;20.90;99.90
22813;DHT22;11573;51.334;3.244;2023-08-24T08:28:43;20.80;99.90
22813;DHT22;11573;51.334;3.244;2023-08-24T08:31:11;20.80;99.90
22813;DHT22;11573;51.334;3.244;2023-08-24T08:33:38;20.80;99.90
22813;DHT22;11573;51.334;3.244;2023-08-24T08:36:06;20.80;99.90
22813;DHT22;11573;51.334;3.244;2023-08-24T08:38:33;20.80;99.90
22813;DHT22;11573;51.334;3.244;2023-08-24T08:41:04;20.70;99.90
22813;DHT22;11573;51.334;3.244;2023-08-24T08:43:31;20.60;99.90
22813;DHT22;11573;51.334;3.244;2023-08-24T08:45:59;20.60;99.90
22813;DHT22;11573;51.334;3.244;2023-08-24T08:48:28;20.60;99.90
22813;DHT22;11573;51.334;3.244;2023-08-24T08:50:58;20.50;99.90
22813;DHT22;11573;51.334;3.244;2023-08-24T08:53:25;20.50;99.90
22813;DHT22;11573;51.334;3.244;2023-08-24T08:55:54;20.40;99.90
22813;DHT22;11573;51.334;3.244;2023-08-24T08:58:22;20.40;99.90
22813;DHT22;11573;51.334;3.244;2023-08-24T09:00:49;20.40;99.90
22813;DHT22;11573;51.334;3.244;2023-08-24T09:03:18;20.40;99.90
22813;DHT22;11573;51.334;3.244;2023-08-24T09:05:46;20.50;99.90
22813;DHT22;11573;51.334;3.244;2023-08-24T09:08:18;20.60;99.90
22813;DHT22;11573;51.334;3.244;2023-08-24T09:10:45;20.70;99.90
22813;DHT22;11573;51.334;3.244;2023-08-24T09:13:12;20.70;99.90
22813;DHT22;11573;51.334;3.244;2023-08-24T09:15:39;20.80;99.90
22813;DHT22;11573;51.334;3.244;2023-08-24T09:18:07;20.90;99.90
22813;DHT22;11573;51.334;3.244;2023-08-24T09:20:35;21.00;99.90
22813;DHT22;11573;51.334;3.244;2023-08-24T09:23:03;21.10;99.90
22813;DHT22;11573;51.334;3.244;2023-08-24T09:25:30;21.10;99.90
22813;DHT22;11573;51.334;3.244;2023-08-24T09:28:02;21.10;99.90
22813;DHT22;11573;51.334;3.244;2023-08-24T09:30:35;21.10;99.90
22813;DHT22;11573;51.334;3.244;2023-08-24T09:33:13;21.10;99.90
22813;DHT22;11573;51.334;3.244;2023-08-24T09:35:40;21.20;99.90
22813;DHT22;11573;51.334;3.244;2023-08-24T09:38:21;21.20;99.90
22813;DHT22;11573;51.334;3.244;2023-08-24T09:40:54;21.20;99.90
22813;DHT22;11573;51.334;3.244;2023-08-24T09:43:22;21.20;99.90
22813;DHT22;11573;51.334;3.244;2023-08-24T09:48:17;21.40;99.90
22813;DHT22;11573;51.334;3.244;2023-08-24T09:50:49;21.30;99.90
22813;DHT22;11573;51.334;3.244;2023-08-24T09:53:20;21.30;99.90
22813;DHT22;11573;51.334;3.244;2023-08-24T09:55:54;21.40;99.90
22813;DHT22;11573;51.334;3.244;2023-08-24T09:58:24;21.40;99.90
22813;DHT22;11573;51.334;3.244;2023-08-24T10:00:52;21.60;99.90
22813;DHT22;11573;51.334;3.244;2023-08-24T10:03:29;21.80;99.90
22813;DHT22;11573;51.334;3.244;2023-08-24T10:05:57;22.10;99.90
22813;DHT22;11573;51.334;3.244;2023-08-24T10:08:36;22.30;99.90
22813;DHT22;11573;51.334;3.244;2023-08-24T10:11:06;22.40;99.90
22813;DHT22;11573;51.334;3.244;2023-08-24T10:13:49;22.70;99.90
22813;DHT22;11573;51.334;3.244;2023-08-24T10:16:17;23.00;99.90
22813;DHT22;11573;51.334;3.244;2023-08-24T10:18:46;23.40;99.90
22813;DHT22;11573;51.334;3.244;2023-08-24T10:21:13;23.80;99.90
22813;DHT22;11573;51.334;3.244;2023-08-24T10:23:42;24.20;99.90
22813;DHT22;11573;51.334;3.244;2023-08-24T10:26:10;24.60;99.90
22813;DHT22;11573;51.334;3.244;2023-08-24T10:28:39;24.90;99.90
22813;DHT22;11573;51.334;3.244;2023-08-24T10:31:06;24.90;99.90
22813;DHT22;11573;51.334;3.244;2023-08-24T10:33:34;24.90;99.90
22813;DHT22;11573;51.334;3.244;2023-08-24T10:36:07;24.90;99.90
22813;DHT22;11573;51.334;3.244;2023-08-24T10:38:40;24.90;99.90
22813;DHT22;11573;51.334;3.244;2023-08-24T10:41:08;24.80;99.90
22813;DHT22;11573;51.334;3.244;2023-08-24T10:43:39;24.70;99.90
22813;DHT22;11573;51.334;3.244;2023-08-24T10:46:14;24.90;99.90
22813;DHT22;11573;51.334;3.244;2023-08-24T10:56:19;25.50;99.90
22813;DHT22;11573;51.334;3.244;2023-08-24T10:58:47;25.80;99.90
22813;DHT22;11573;51.334;3.244;2023-08-24T11:01:38;25.90;99.90
22813;DHT22;11573;51.334;3.244;2023-08-24T11:04:05;26.10;99.90
22813;DHT22;11573;51.334;3.244;2023-08-24T11:06:35;26.30;99.90
22813;DHT22;11573;51.334;3.244;2023-08-24T11:09:17;26.50;99.90
22813;DHT22;11573;51.334;3.244;2023-08-24T11:12:02;26.90;99.90
22813;DHT22;11573;51.334;3.244;2023-08-24T11:14:30;27.30;99.90
22813;DHT22;11573;51.334;3.244;2023-08-24T11:17:16;27.30;99.90
22813;DHT22;11573;51.334;3.244;2023-08-24T11:19:53;27.10;99.90
22813;DHT22;11573;51.334;3.244;2023-08-24T11:22:23;26.70;99.90
22813;DHT22;11573;51.334;3.244;2023-08-24T11:24:52;26.80;99.90
22813;DHT22;11573;51.334;3.244;2023-08-24T11:27:21;26.70;99.90
22813;DHT22;11573;51.334;3.244;2023-08-24T11:29:58;26.90;99.90
22813;DHT22;11573;51.334;3.244;2023-08-24T11:32:26;27.00;99.90
22813;DHT22;11573;51.334;3.244;2023-08-24T11:34:54;26.90;99.90
22813;DHT22;11573;51.334;3.244;2023-08-24T11:37:21;26.70;99.90
22813;DHT22;11573;51.334;3.244;2023-08-24T11:39:48;26.40;99.90
22813;DHT22;11573;51.334;3.244;2023-08-24T11:42:15;26.50;99.90
22813;DHT22;11573;51.334;3.244;2023-08-24T11:44:46;26.30;99.90
22813;DHT22;11573;51.334;3.244;2023-08-24T11:47:16;26.30;99.90
22813;DHT22;11573;51.334;3.244;2023-08-24T11:49:46;26.00;99.90
22813;DHT22;11573;51.334;3.244;2023-08-24T11:52:13;26.10;99.90
22813;DHT22;11573;51.334;3.244;2023-08-24T11:54:43;26.40;99.90
22813;DHT22;11573;51.334;3.244;2023-08-24T11:57:11;26.60;99.90
22813;DHT22;11573;51.334;3.244;2023-08-24T11:59:39;26.70;99.90
22813;DHT22;11573;51.334;3.244;2023-08-24T12:02:08;26.80;99.90
22813;DHT22;11573;51.334;3.244;2023-08-24T12:04:40;26.60;99.90
22813;DHT22;11573;51.334;3.244;2023-08-24T12:07:11;26.60;99.90
22813;DHT22;11573;51.334;3.244;2023-08-24T12:09:42;26.50;99.90
22813;DHT22;11573;51.334;3.244;2023-08-24T12:12:16;26.40;99.90
22813;DHT22;11573;51.334;3.244;2023-08-24T12:14:45;26.30;99.90
22813;DHT22;11573;51.334;3.244;2023-08-24T12:17:14;26.80;99.90
22813;DHT22;11573;51.334;3.244;2023-08-24T12:19:56;27.20;99.90
22813;DHT22;11573;51.334;3.244;2023-08-24T12:22:23;27.40;99.90
22813;DHT22;11573;51.334;3.244;2023-08-24T12:24:50;27.30;99.90
22813;DHT22;11573;51.334;3.244;2023-08-24T12:27:22;27.50;99.90
22813;DHT22;11573;51.334;3.244;2023-08-24T12:29:50;27.40;99.90
22813;DHT22;11573;51.334;3.244;2023-08-24T12:32:17;27.40;99.90
22813;DHT22;11573;51.334;3.244;2023-08-24T12:34:47;27.30;99.90
22813;DHT22;11573;51.334;3.244;2023-08-24T12:37:14;27.40;99.90
22813;DHT22;11573;51.334;3.244;2023-08-24T12:39:41;27.30;99.90
22813;DHT22;11573;51.334;3.244;2023-08-24T12:42:08;27.30;99.90
22813;DHT22;11573;51.334;3.244;2023-08-24T12:44:35;27.60;99.90
22813;DHT22;11573;51.334;3.244;2023-08-24T12:47:03;27.40;99.90
22813;DHT22;11573;51.334;3.244;2023-08-24T12:49:30;27.20;99.90
22813;DHT22;11573;51.334;3.244;2023-08-24T12:51:57;27.50;99.90
22813;DHT22;11573;51.334;3.244;2023-08-24T12:54:24;27.70;99.90
22813;DHT22;11573;51.334;3.244;2023-08-24T12:56:51;27.50;99.90
22813;DHT22;11573;51.334;3.244;2023-08-24T12:59:19;27.90;99.90
22813;DHT22;11573;51.334;3.244;2023-08-24T13:01:46;27.60;99.90
22813;DHT22;11573;51.334;3.244;2023-08-24T13:04:14;27.70;99.90
22813;DHT22;11573;51.334;3.244;2023-08-24T13:06:40;27.50;99.90
22813;DHT22;11573;51.334;3.244;2023-08-24T13:09:07;27.50;99.90
22813;DHT22;11573;51.334;3.244;2023-08-24T13:11:35;27.80;99.90
22813;DHT22;11573;51.334;3.244;2023-08-24T13:14:02;27.80;99.90
22813;DHT22;11573;51.334;3.244;2023-08-24T13:16:29;28.20;99.90
22813;DHT22;11573;51.334;3.244;2023-08-24T13:18:56;28.20;99.90
22813;DHT22;11573;51.334;3.244;2023-08-24T13:21:24;27.80;99.90
22813;DHT22;11573;51.334;3.244;2023-08-24T13:23:51;27.80;99.90
22813;DHT22;11573;51.334;3.244;2023-08-24T13:26:21;27.80;99.90
22813;DHT22;11573;51.334;3.244;2023-08-24T13:28:51;27.80;99.90
22813;DHT22;11573;51.334;3.244;2023-08-24T13:31:18;27.60;99.90
22813;DHT22;11573;51.334;3.244;2023-08-24T13:33:45;27.40;99.90
22813;DHT22;11573;51.334;3.244;2023-08-24T13:36:13;27.50;99.90
22813;DHT22;11573;51.334;3.244;2023-08-24T13:38:40;27.40;99.90
22813;DHT22;11573;51.334;3.244;2023-08-24T13:41:06;27.20;99.90
22813;DHT22;11573;51.334;3.244;2023-08-24T13:43:33;27.30;99.90
22813;DHT22;11573;51.334;3.244;2023-08-24T13:46:01;27.50;99.90
22813;DHT22;11573;51.334;3.244;2023-08-24T13:48:30;27.30;99.90
22813;DHT22;11573;51.334;3.244;2023-08-24T13:51:01;27.30;99.90
22813;DHT22;11573;51.334;3.244;2023-08-24T13:53:28;27.10;99.90
22813;DHT22;11573;51.334;3.244;2023-08-24T13:55:55;27.10;99.90
22813;DHT22;11573;51.334;3.244;2023-08-24T13:58:22;26.90;99.90
22813;DHT22;11573;51.334;3.244;2023-08-24T14:00:55;26.80;99.90
22813;DHT22;11573;51.334;3.244;2023-08-24T14:03:23;26.60;99.90
22813;DHT22;11573;51.334;3.244;2023-08-24T14:05:57;26.60;99.90
22813;DHT22;11573;51.334;3.244;2023-08-24T14:08:25;26.50;99.90
22813;DHT22;11573;51.334;3.244;2023-08-24T14:10:52;26.60;99.90
22813;DHT22;11573;51.334;3.244;2023-08-24T14:13:19;26.70;99.90
22813;DHT22;11573;51.334;3.244;2023-08-24T14:15:50;26.70;99.90
22813;DHT22;11573;51.334;3.244;2023-08-24T14:18:18;26.80;99.90
22813;DHT22;11573;51.334;3.244;2023-08-24T14:20:47;26.80;99.90
22813;DHT22;11573;51.334;3.244;2023-08-24T14:23:14;26.80;99.90
22813;DHT22;11573;51.334;3.244;2023-08-24T14:25:41;26.80;99.90
22813;DHT22;11573;51.334;3.244;2023-08-24T14:28:08;26.90;99.90
22813;DHT22;11573;51.334;3.244;2023-08-24T14:30:38;26.90;99.90
22813;DHT22;11573;51.334;3.244;2023-08-24T14:33:06;26.80;99.90
22813;DHT22;11573;51.334;3.244;2023-08-24T14:35:33;26.70;99.90
22813;DHT22;11573;51.334;3.244;2023-08-24T14:38:00;26.50;99.90
22813;DHT22;11573;51.334;3.244;2023-08-24T14:40:27;26.40;99.90
22813;DHT22;11573;51.334;3.244;2023-08-24T14:42:54;26.40;99.90
22813;DHT22;11573;51.334;3.244;2023-08-24T14:45:21;26.20;99.90
22813;DHT22;11573;51.334;3.244;2023-08-24T14:47:49;26.10;99.90
22813;DHT22;11573;51.334;3.244;2023-08-24T14:50:16;26.10;99.90
22813;DHT22;11573;51.334;3.244;2023-08-24T14:52:43;26.10;99.90
22813;DHT22;11573;51.334;3.244;2023-08-24T14:55:10;26.20;99.90
22813;DHT22;11573;51.334;3.244;2023-08-24T14:57:37;26.10;99.90
22813;DHT22;11573;51.334;3.244;2023-08-24T15:00:04;25.90;99.90
22813;DHT22;11573;51.334;3.244;2023-08-24T15:02:32;25.30;99.90
22813;DHT22;11573;51.334;3.244;2023-08-24T15:04:59;25.20;99.90
22813;DHT22;11573;51.334;3.244;2023-08-24T15:07:27;25.20;99.90
22813;DHT22;11573;51.334;3.244;2023-08-24T15:09:54;25.20;99.90
22813;DHT22;11573;51.334;3.244;2023-08-24T15:12:21;25.20;99.90
22813;DHT22;11573;51.334;3.244;2023-08-24T15:15:02;25.20;99.90
22813;DHT22;11573;51.334;3.244;2023-08-24T15:17:31;25.20;99.90
22813;DHT22;11573;51.334;3.244;2023-08-24T15:19:58;25.20;99.90
22813;DHT22;11573;51.334;3.244;2023-08-24T15:22:25;24.90;99.90
22813;DHT22;11573;51.334;3.244;2023-08-24T15:24:56;24.60;99.90
22813;DHT22;11573;51.334;3.244;2023-08-24T15:27:24;24.60;99.90
22813;DHT22;11573;51.334;3.244;2023-08-24T15:29:51;24.60;99.90
22813;DHT22;11573;51.334;3.244;2023-08-24T15:32:18;24.60;99.90
22813;DHT22;11573;51.334;3.244;2023-08-24T15:34:46;24.60;99.90
22813;DHT22;11573;51.334;3.244;2023-08-24T15:37:13;24.70;99.90
22813;DHT22;11573;51.334;3.244;2023-08-24T15:39:40;24.60;99.90
22813;DHT22;11573;51.334;3.244;2023-08-24T15:42:08;24.60;99.90
22813;DHT22;11573;51.334;3.244;2023-08-24T15:44:35;24.80;99.90
22813;DHT22;11573;51.334;3.244;2023-08-24T15:47:02;25.10;99.90
22813;DHT22;11573;51.334;3.244;2023-08-24T15:49:29;25.30;99.90
22813;DHT22;11573;51.334;3.244;2023-08-24T15:51:56;25.60;99.90